sensor_id;sensor_type;location;lat;lon;timestamp;P1;durP1;ratioP1;P2;durP2;ratioP2
39654;SDS011;25336;59.944;11.010;2023-11-21T00:00:04;17.13;;;10.77;;
39654;SDS011;25336;59.944;11.010;2023-11-21T00:02:35;16.20;;;10.20;;
39654;SDS011;25336;59.944;11.010;2023-11-21T00:05:03;15.32;;;10.52;;
39654;SDS011;25336;59.944;11.010;2023-11-21T00:07:29;13.38;;;9.13;;
39654;SDS011;25336;59.944;11.010;2023-11-21T00:09:55;13.32;;;10.15;;
39654;SDS011;25336;59.944;11.010;2023-11-21T00:12:22;15.63;;;11.18;;
39654;SDS011;25336;59.944;11.010;2023-11-21T00:14:47;17.23;;;10.98;;
39654;SDS011;25336;59.944;11.010;2023-11-21T00:17:13;17.27;;;12.23;;
39654;SDS011;25336;59.944;11.010;2023-11-21T00:19:39;15.35;;;9.82;;
39654;SDS011;25336;59.944;11.010;2023-11-21T00:22:04;15.85;;;11.10;;
39654;SDS011;25336;59.944;11.010;2023-11-21T00:24:31;15.32;;;10.40;;
39654;SDS011;25336;59.944;11.010;2023-11-21T00:26:57;19.95;;;10.23;;
39654;SDS011;25336;59.944;11.010;2023-11-21T00:29:22;17.98;;;11.20;;
39654;SDS011;25336;59.944;11.010;2023-11-21T00:31:48;17.45;;;11.70;;
39654;SDS011;25336;59.944;11.010;2023-11-21T00:34:14;18.40;;;11.00;;
39654;SDS011;25336;59.944;11.010;2023-11-21T00:36:39;26.42;;;12.43;;
39654;SDS011;25336;59.944;11.010;2023-11-21T00:39:05;18.88;;;11.40;;
39654;SDS011;25336;59.944;11.010;2023-11-21T00:41:31;20.88;;;11.55;;
39654;SDS011;25336;59.944;11.010;2023-11-21T00:43:57;20.92;;;12.60;;
39654;SDS011;25336;59.944;11.010;2023-11-21T00:46:24;22.23;;;11.90;;
39654;SDS011;25336;59.944;11.010;2023-11-21T00:48:53;25.77;;;11.65;;
39654;SDS011;25336;59.944;11.010;2023-11-21T00:51:19;28.58;;;12.60;;
39654;SDS011;25336;59.944;11.010;2023-11-21T00:53:45;21.77;;;11.13;;
39654;SDS011;25336;59.944;11.010;2023-11-21T00:56:11;24.70;;;11.88;;
39654;SDS011;25336;59.944;11.010;2023-11-21T00:58:38;24.65;;;11.52;;
39654;SDS011;25336;59.944;11.010;2023-11-21T01:01:04;19.17;;;10.07;;
39654;SDS011;25336;59.944;11.010;2023-11-21T01:03:30;13.90;;;8.75;;
39654;SDS011;25336;59.944;11.010;2023-11-21T01:05:55;12.32;;;8.63;;
39654;SDS011;25336;59.944;11.010;2023-11-21T01:08:21;15.45;;;9.30;;
39654;SDS011;25336;59.944;11.010;2023-11-21T01:10:49;16.15;;;10.00;;
39654;SDS011;25336;59.944;11.010;2023-11-21T01:13:14;14.63;;;9.73;;
39654;SDS011;25336;59.944;11.010;2023-11-21T01:15:40;13.45;;;9.40;;
39654;SDS011;25336;59.944;11.010;2023-11-21T01:18:06;12.90;;;9.15;;
39654;SDS011;25336;59.944;11.010;2023-11-21T01:20:33;13.20;;;8.80;;
39654;SDS011;25336;59.944;11.010;2023-11-21T01:22:59;10.95;;;8.73;;
39654;SDS011;25336;59.944;11.010;2023-11-21T01:25:25;15.57;;;9.60;;
39654;SDS011;25336;59.944;11.010;2023-11-21T01:27:51;14.23;;;10.15;;
39654;SDS011;25336;59.944;11.010;2023-11-21T01:30:17;13.63;;;9.23;;
39654;SDS011;25336;59.944;11.010;2023-11-21T01:32:44;12.77;;;8.68;;
39654;SDS011;25336;59.944;11.010;2023-11-21T01:35:09;13.13;;;8.65;;
39654;SDS011;25336;59.944;11.010;2023-11-21T01:37:35;14.15;;;8.68;;
39654;SDS011;25336;59.944;11.010;2023-11-21T01:40:02;13.85;;;8.73;;
39654;SDS011;25336;59.944;11.010;2023-11-21T01:42:31;13.20;;;8.90;;
39654;SDS011;25336;59.944;11.010;2023-11-21T01:44:56;21.42;;;12.05;;
39654;SDS011;25336;59.944;11.010;2023-11-21T01:47:22;25.63;;;12.43;;
39654;SDS011;25336;59.944;11.010;2023-11-21T01:49:48;20.42;;;10.60;;
39654;SDS011;25336;59.944;11.010;2023-11-21T01:52:13;12.52;;;8.07;;
39654;SDS011;25336;59.944;11.010;2023-11-21T01:54:40;11.98;;;8.57;;
39654;SDS011;25336;59.944;11.010;2023-11-21T01:57:07;21.70;;;10.18;;
39654;SDS011;25336;59.944;11.010;2023-11-21T01:59:36;40.55;;;16.15;;
39654;SDS011;25336;59.944;11.010;2023-11-21T02:02:03;50.88;;;18.25;;
39654;SDS011;25336;59.944;11.010;2023-11-21T02:04:33;64.53;;;21.20;;
39654;SDS011;25336;59.944;11.010;2023-11-21T02:06:59;67.70;;;21.00;;
39654;SDS011;25336;59.944;11.010;2023-11-21T02:09:26;54.88;;;18.40;;
39654;SDS011;25336;59.944;11.010;2023-11-21T02:11:52;56.38;;;19.20;;
39654;SDS011;25336;59.944;11.010;2023-11-21T02:14:19;29.23;;;11.88;;
39654;SDS011;25336;59.944;11.010;2023-11-21T02:16:48;29.65;;;10.63;;
39654;SDS011;25336;59.944;11.010;2023-11-21T02:19:18;25.05;;;11.98;;
39654;SDS011;25336;59.944;11.010;2023-11-21T02:21:51;40.70;;;15.40;;
39654;SDS011;25336;59.944;11.010;2023-11-21T02:24:20;50.95;;;17.17;;
39654;SDS011;25336;59.944;11.010;2023-11-21T02:26:50;54.80;;;19.75;;
39654;SDS011;25336;59.944;11.010;2023-11-21T02:29:17;54.30;;;20.33;;
39654;SDS011;25336;59.944;11.010;2023-11-21T02:31:47;73.80;;;22.35;;
39654;SDS011;25336;59.944;11.010;2023-11-21T02:34:17;49.40;;;16.88;;
39654;SDS011;25336;59.944;11.010;2023-11-21T02:36:43;32.55;;;12.20;;
39654;SDS011;25336;59.944;11.010;2023-11-21T02:39:09;20.02;;;9.63;;
39654;SDS011;25336;59.944;11.010;2023-11-21T02:41:36;26.00;;;11.48;;
39654;SDS011;25336;59.944;11.010;2023-11-21T02:44:04;21.80;;;11.98;;
39654;SDS011;25336;59.944;11.010;2023-11-21T02:46:31;23.88;;;12.18;;
39654;SDS011;25336;59.944;11.010;2023-11-21T02:48:59;15.68;;;8.82;;
39654;SDS011;25336;59.944;11.010;2023-11-21T02:51:25;20.67;;;9.75;;
39654;SDS011;25336;59.944;11.010;2023-11-21T02:53:51;26.77;;;11.57;;
39654;SDS011;25336;59.944;11.010;2023-11-21T02:56:17;23.20;;;12.13;;
39654;SDS011;25336;59.944;11.010;2023-11-21T02:58:43;13.55;;;9.35;;
39654;SDS011;25336;59.944;11.010;2023-11-21T03:01:09;11.70;;;8.43;;
39654;SDS011;25336;59.944;11.010;2023-11-21T03:03:36;11.75;;;8.25;;
39654;SDS011;25336;59.944;11.010;2023-11-21T03:06:04;16.92;;;9.35;;
39654;SDS011;25336;59.944;11.010;2023-11-21T03:08:33;15.43;;;10.43;;
39654;SDS011;25336;59.944;11.010;2023-11-21T03:10:59;12.82;;;8.85;;
39654;SDS011;25336;59.944;11.010;2023-11-21T03:13:25;14.52;;;10.07;;
39654;SDS011;25336;59.944;11.010;2023-11-21T03:15:51;20.65;;;12.90;;
39654;SDS011;25336;59.944;11.010;2023-11-21T03:18:17;28.05;;;14.48;;
39654;SDS011;25336;59.944;11.010;2023-11-21T03:20:45;30.30;;;15.40;;
39654;SDS011;25336;59.944;11.010;2023-11-21T03:23:11;29.60;;;14.85;;
39654;SDS011;25336;59.944;11.010;2023-11-21T03:25:37;24.58;;;14.02;;
39654;SDS011;25336;59.944;11.010;2023-11-21T03:28:03;20.33;;;11.98;;
39654;SDS011;25336;59.944;11.010;2023-11-21T03:30:29;14.85;;;10.20;;
39654;SDS011;25336;59.944;11.010;2023-11-21T03:32:54;15.70;;;8.75;;
39654;SDS011;25336;59.944;11.010;2023-11-21T03:35:20;11.55;;;7.88;;
39654;SDS011;25336;59.944;11.010;2023-11-21T03:37:46;10.48;;;7.95;;
39654;SDS011;25336;59.944;11.010;2023-11-21T03:40:12;12.07;;;8.57;;
39654;SDS011;25336;59.944;11.010;2023-11-21T03:42:39;17.48;;;11.32;;
39654;SDS011;25336;59.944;11.010;2023-11-21T03:45:05;16.42;;;10.60;;
39654;SDS011;25336;59.944;11.010;2023-11-21T03:47:31;17.38;;;10.82;;
39654;SDS011;25336;59.944;11.010;2023-11-21T03:49:57;18.83;;;11.23;;
39654;SDS011;25336;59.944;11.010;2023-11-21T03:52:23;14.50;;;9.70;;
39654;SDS011;25336;59.944;11.010;2023-11-21T03:54:49;11.65;;;8.57;;
39654;SDS011;25336;59.944;11.010;2023-11-21T03:57:15;16.27;;;10.60;;
39654;SDS011;25336;59.944;11.010;2023-11-21T03:59:41;16.38;;;10.82;;
39654;SDS011;25336;59.944;11.010;2023-11-21T04:02:08;15.00;;;10.93;;
39654;SDS011;25336;59.944;11.010;2023-11-21T04:04:34;14.13;;;9.18;;
39654;SDS011;25336;59.944;11.010;2023-11-21T04:07:00;15.65;;;8.98;;
39654;SDS011;25336;59.944;11.010;2023-11-21T04:09:26;19.83;;;10.52;;
39654;SDS011;25336;59.944;11.010;2023-11-21T04:11:52;21.08;;;11.57;;
39654;SDS011;25336;59.944;11.010;2023-11-21T04:14:18;17.52;;;9.98;;
39654;SDS011;25336;59.944;11.010;2023-11-21T04:16:44;14.13;;;9.32;;
39654;SDS011;25336;59.944;11.010;2023-11-21T04:19:10;12.32;;;8.45;;
39654;SDS011;25336;59.944;11.010;2023-11-21T04:21:36;12.70;;;8.32;;
39654;SDS011;25336;59.944;11.010;2023-11-21T04:24:02;11.95;;;8.27;;
39654;SDS011;25336;59.944;11.010;2023-11-21T04:26:28;18.10;;;8.88;;
39654;SDS011;25336;59.944;11.010;2023-11-21T04:28:54;18.40;;;8.30;;
39654;SDS011;25336;59.944;11.010;2023-11-21T04:31:19;13.07;;;9.07;;
39654;SDS011;25336;59.944;11.010;2023-11-21T04:33:45;9.77;;;7.55;;
39654;SDS011;25336;59.944;11.010;2023-11-21T04:36:11;12.07;;;8.20;;
39654;SDS011;25336;59.944;11.010;2023-11-21T04:38:36;13.68;;;8.77;;
39654;SDS011;25336;59.944;11.010;2023-11-21T04:41:02;9.23;;;7.30;;
39654;SDS011;25336;59.944;11.010;2023-11-21T04:43:28;16.25;;;9.52;;
39654;SDS011;25336;59.944;11.010;2023-11-21T04:45:54;17.73;;;11.50;;
39654;SDS011;25336;59.944;11.010;2023-11-21T04:48:20;13.50;;;9.18;;
39654;SDS011;25336;59.944;11.010;2023-11-21T04:50:46;23.08;;;11.77;;
39654;SDS011;25336;59.944;11.010;2023-11-21T04:53:12;48.85;;;18.52;;
39654;SDS011;25336;59.944;11.010;2023-11-21T04:55:40;48.08;;;19.50;;
39654;SDS011;25336;59.944;11.010;2023-11-21T04:58:06;26.52;;;12.68;;
39654;SDS011;25336;59.944;11.010;2023-11-21T05:00:33;25.02;;;11.30;;
39654;SDS011;25336;59.944;11.010;2023-11-21T05:02:59;18.67;;;9.15;;
39654;SDS011;25336;59.944;11.010;2023-11-21T05:05:26;11.25;;;7.53;;
39654;SDS011;25336;59.944;11.010;2023-11-21T05:07:52;14.65;;;9.18;;
39654;SDS011;25336;59.944;11.010;2023-11-21T05:10:18;12.18;;;8.73;;
39654;SDS011;25336;59.944;11.010;2023-11-21T05:12:45;13.13;;;8.52;;
39654;SDS011;25336;59.944;11.010;2023-11-21T05:15:13;10.90;;;8.13;;
39654;SDS011;25336;59.944;11.010;2023-11-21T05:17:40;11.02;;;9.20;;
39654;SDS011;25336;59.944;11.010;2023-11-21T05:20:10;12.90;;;9.63;;
39654;SDS011;25336;59.944;11.010;2023-11-21T05:22:38;14.02;;;9.90;;
39654;SDS011;25336;59.944;11.010;2023-11-21T05:25:04;17.52;;;9.52;;
39654;SDS011;25336;59.944;11.010;2023-11-21T05:27:32;12.82;;;9.48;;
39654;SDS011;25336;59.944;11.010;2023-11-21T05:29:58;18.13;;;10.55;;
39654;SDS011;25336;59.944;11.010;2023-11-21T05:32:27;14.07;;;10.50;;
39654;SDS011;25336;59.944;11.010;2023-11-21T05:34:52;15.40;;;9.68;;
39654;SDS011;25336;59.944;11.010;2023-11-21T05:37:18;15.35;;;9.95;;
39654;SDS011;25336;59.944;11.010;2023-11-21T05:39:44;17.95;;;10.70;;
39654;SDS011;25336;59.944;11.010;2023-11-21T05:42:09;13.38;;;9.70;;
39654;SDS011;25336;59.944;11.010;2023-11-21T05:44:36;14.20;;;10.98;;
39654;SDS011;25336;59.944;11.010;2023-11-21T05:47:02;18.60;;;12.25;;
39654;SDS011;25336;59.944;11.010;2023-11-21T05:49:29;15.10;;;11.15;;
39654;SDS011;25336;59.944;11.010;2023-11-21T05:51:55;15.27;;;9.77;;
39654;SDS011;25336;59.944;11.010;2023-11-21T05:54:21;14.82;;;9.85;;
39654;SDS011;25336;59.944;11.010;2023-11-21T05:56:47;14.68;;;10.75;;
39654;SDS011;25336;59.944;11.010;2023-11-21T05:59:14;13.57;;;10.38;;
39654;SDS011;25336;59.944;11.010;2023-11-21T06:01:40;14.05;;;11.02;;
39654;SDS011;25336;59.944;11.010;2023-11-21T06:04:06;14.93;;;10.73;;
39654;SDS011;25336;59.944;11.010;2023-11-21T06:06:33;13.50;;;8.60;;
39654;SDS011;25336;59.944;11.010;2023-11-21T06:08:59;14.55;;;10.00;;
39654;SDS011;25336;59.944;11.010;2023-11-21T06:11:25;11.88;;;8.75;;
39654;SDS011;25336;59.944;11.010;2023-11-21T06:13:50;13.10;;;9.30;;
39654;SDS011;25336;59.944;11.010;2023-11-21T06:16:18;15.70;;;9.40;;
39654;SDS011;25336;59.944;11.010;2023-11-21T06:18:47;15.75;;;10.25;;
39654;SDS011;25336;59.944;11.010;2023-11-21T06:21:13;16.15;;;11.45;;
39654;SDS011;25336;59.944;11.010;2023-11-21T06:23:39;16.10;;;11.05;;
39654;SDS011;25336;59.944;11.010;2023-11-21T06:26:05;14.32;;;10.32;;
39654;SDS011;25336;59.944;11.010;2023-11-21T06:28:31;16.45;;;8.98;;
39654;SDS011;25336;59.944;11.010;2023-11-21T06:30:57;11.23;;;8.65;;
39654;SDS011;25336;59.944;11.010;2023-11-21T06:33:33;12.25;;;8.70;;
39654;SDS011;25336;59.944;11.010;2023-11-21T06:35:58;17.77;;;10.70;;
39654;SDS011;25336;59.944;11.010;2023-11-21T06:38:27;13.23;;;9.73;;
39654;SDS011;25336;59.944;11.010;2023-11-21T06:40:55;19.73;;;10.77;;
39654;SDS011;25336;59.944;11.010;2023-11-21T06:43:21;15.80;;;10.18;;
39654;SDS011;25336;59.944;11.010;2023-11-21T06:45:47;12.70;;;8.88;;
39654;SDS011;25336;59.944;11.010;2023-11-21T06:48:13;13.70;;;8.90;;
39654;SDS011;25336;59.944;11.010;2023-11-21T06:50:40;13.80;;;8.82;;
39654;SDS011;25336;59.944;11.010;2023-11-21T06:53:06;14.35;;;9.85;;
39654;SDS011;25336;59.944;11.010;2023-11-21T06:55:33;12.68;;;10.00;;
39654;SDS011;25336;59.944;11.010;2023-11-21T06:58:00;16.75;;;10.63;;
39654;SDS011;25336;59.944;11.010;2023-11-21T07:00:26;13.73;;;10.63;;
39654;SDS011;25336;59.944;11.010;2023-11-21T07:02:55;18.60;;;11.43;;
39654;SDS011;25336;59.944;11.010;2023-11-21T07:05:21;13.75;;;9.93;;
39654;SDS011;25336;59.944;11.010;2023-11-21T07:07:47;13.88;;;10.60;;
39654;SDS011;25336;59.944;11.010;2023-11-21T07:10:14;18.52;;;10.68;;
39654;SDS011;25336;59.944;11.010;2023-11-21T07:12:40;18.13;;;11.65;;
39654;SDS011;25336;59.944;11.010;2023-11-21T07:15:06;21.35;;;11.63;;
39654;SDS011;25336;59.944;11.010;2023-11-21T07:17:37;15.60;;;10.50;;
39654;SDS011;25336;59.944;11.010;2023-11-21T07:20:03;13.82;;;9.07;;
39654;SDS011;25336;59.944;11.010;2023-11-21T07:22:29;17.40;;;11.45;;
39654;SDS011;25336;59.944;11.010;2023-11-21T07:24:55;14.20;;;9.50;;
39654;SDS011;25336;59.944;11.010;2023-11-21T07:27:23;14.38;;;9.82;;
39654;SDS011;25336;59.944;11.010;2023-11-21T07:29:49;14.15;;;10.60;;
39654;SDS011;25336;59.944;11.010;2023-11-21T07:32:15;14.68;;;9.60;;
39654;SDS011;25336;59.944;11.010;2023-11-21T07:34:41;14.20;;;9.65;;
39654;SDS011;25336;59.944;11.010;2023-11-21T07:37:07;14.68;;;9.35;;
39654;SDS011;25336;59.944;11.010;2023-11-21T07:39:34;10.32;;;8.55;;
39654;SDS011;25336;59.944;11.010;2023-11-21T07:42:02;14.95;;;9.82;;
39654;SDS011;25336;59.944;11.010;2023-11-21T07:44:29;14.93;;;9.65;;
39654;SDS011;25336;59.944;11.010;2023-11-21T07:46:55;12.18;;;9.20;;
39654;SDS011;25336;59.944;11.010;2023-11-21T07:49:23;15.52;;;9.80;;
39654;SDS011;25336;59.944;11.010;2023-11-21T07:51:51;13.07;;;9.73;;
39654;SDS011;25336;59.944;11.010;2023-11-21T07:54:17;12.40;;;8.85;;
39654;SDS011;25336;59.944;11.010;2023-11-21T07:56:43;11.88;;;8.35;;
39654;SDS011;25336;59.944;11.010;2023-11-21T07:59:10;13.00;;;9.27;;
39654;SDS011;25336;59.944;11.010;2023-11-21T08:01:36;13.75;;;8.57;;
39654;SDS011;25336;59.944;11.010;2023-11-21T08:04:01;12.85;;;9.30;;
39654;SDS011;25336;59.944;11.010;2023-11-21T08:06:29;14.30;;;9.25;;
39654;SDS011;25336;59.944;11.010;2023-11-21T08:08:56;12.38;;;8.98;;
39654;SDS011;25336;59.944;11.010;2023-11-21T08:11:22;15.65;;;10.65;;
39654;SDS011;25336;59.944;11.010;2023-11-21T08:13:47;16.77;;;11.77;;
39654;SDS011;25336;59.944;11.010;2023-11-21T08:16:14;18.30;;;11.50;;
39654;SDS011;25336;59.944;11.010;2023-11-21T08:18:40;15.05;;;10.23;;
39654;SDS011;25336;59.944;11.010;2023-11-21T08:21:06;15.05;;;9.80;;
39654;SDS011;25336;59.944;11.010;2023-11-21T08:23:33;17.55;;;10.30;;
39654;SDS011;25336;59.944;11.010;2023-11-21T08:25:59;13.52;;;9.43;;
39654;SDS011;25336;59.944;11.010;2023-11-21T08:28:25;16.20;;;10.45;;
39654;SDS011;25336;59.944;11.010;2023-11-21T08:30:51;13.98;;;10.35;;
39654;SDS011;25336;59.944;11.010;2023-11-21T08:33:17;17.00;;;11.40;;
39654;SDS011;25336;59.944;11.010;2023-11-21T08:35:44;18.98;;;12.55;;
39654;SDS011;25336;59.944;11.010;2023-11-21T08:38:11;19.02;;;12.98;;
39654;SDS011;25336;59.944;11.010;2023-11-21T08:40:37;17.77;;;12.93;;
39654;SDS011;25336;59.944;11.010;2023-11-21T08:43:03;21.15;;;12.50;;
39654;SDS011;25336;59.944;11.010;2023-11-21T08:45:33;21.15;;;13.77;;
39654;SDS011;25336;59.944;11.010;2023-11-21T08:47:59;21.17;;;12.55;;
39654;SDS011;25336;59.944;11.010;2023-11-21T08:50:26;23.88;;;14.30;;
39654;SDS011;25336;59.944;11.010;2023-11-21T08:52:51;25.27;;;14.68;;
39654;SDS011;25336;59.944;11.010;2023-11-21T08:55:17;32.38;;;15.82;;
39654;SDS011;25336;59.944;11.010;2023-11-21T08:57:45;26.55;;;15.98;;
39654;SDS011;25336;59.944;11.010;2023-11-21T09:00:11;25.90;;;14.90;;
39654;SDS011;25336;59.944;11.010;2023-11-21T09:02:40;22.83;;;14.45;;
39654;SDS011;25336;59.944;11.010;2023-11-21T09:05:12;20.35;;;13.38;;
39654;SDS011;25336;59.944;11.010;2023-11-21T09:07:39;28.13;;;14.13;;
39654;SDS011;25336;59.944;11.010;2023-11-21T09:10:06;48.17;;;16.05;;
39654;SDS011;25336;59.944;11.010;2023-11-21T09:12:37;21.27;;;13.38;;
39654;SDS011;25336;59.944;11.010;2023-11-21T09:15:03;25.40;;;15.13;;
39654;SDS011;25336;59.944;11.010;2023-11-21T09:17:30;35.25;;;15.60;;
39654;SDS011;25336;59.944;11.010;2023-11-21T09:19:57;31.92;;;14.60;;
39654;SDS011;25336;59.944;11.010;2023-11-21T09:22:22;33.22;;;16.45;;
39654;SDS011;25336;59.944;11.010;2023-11-21T09:24:50;36.13;;;18.15;;
39654;SDS011;25336;59.944;11.010;2023-11-21T09:27:19;66.60;;;18.33;;
39654;SDS011;25336;59.944;11.010;2023-11-21T09:29:46;31.42;;;17.17;;
39654;SDS011;25336;59.944;11.010;2023-11-21T09:32:12;34.08;;;16.23;;
39654;SDS011;25336;59.944;11.010;2023-11-21T09:34:41;32.42;;;17.30;;
39654;SDS011;25336;59.944;11.010;2023-11-21T09:37:06;25.67;;;14.90;;
39654;SDS011;25336;59.944;11.010;2023-11-21T09:39:33;28.08;;;13.82;;
39654;SDS011;25336;59.944;11.010;2023-11-21T09:44:36;22.02;;;13.80;;
39654;SDS011;25336;59.944;11.010;2023-11-21T09:47:05;18.13;;;11.25;;
39654;SDS011;25336;59.944;11.010;2023-11-21T09:49:35;20.60;;;12.85;;
39654;SDS011;25336;59.944;11.010;2023-11-21T09:52:03;19.27;;;12.27;;
39654;SDS011;25336;59.944;11.010;2023-11-21T09:54:31;20.20;;;12.38;;
39654;SDS011;25336;59.944;11.010;2023-11-21T09:56:59;23.48;;;10.68;;
39654;SDS011;25336;59.944;11.010;2023-11-21T09:59:25;30.83;;;11.25;;
39654;SDS011;25336;59.944;11.010;2023-11-21T10:01:56;35.67;;;10.27;;
39654;SDS011;25336;59.944;11.010;2023-11-21T10:04:23;24.33;;;12.02;;
39654;SDS011;25336;59.944;11.010;2023-11-21T10:06:51;37.85;;;11.43;;
39654;SDS011;25336;59.944;11.010;2023-11-21T10:09:18;27.42;;;10.75;;
39654;SDS011;25336;59.944;11.010;2023-11-21T10:11:46;41.58;;;11.43;;
39654;SDS011;25336;59.944;11.010;2023-11-21T10:14:14;18.02;;;11.70;;
39654;SDS011;25336;59.944;11.010;2023-11-21T10:16:44;21.30;;;12.50;;
39654;SDS011;25336;59.944;11.010;2023-11-21T10:19:12;19.83;;;11.25;;
39654;SDS011;25336;59.944;11.010;2023-11-21T10:21:38;20.42;;;12.82;;
39654;SDS011;25336;59.944;11.010;2023-11-21T10:24:05;50.42;;;13.23;;
39654;SDS011;25336;59.944;11.010;2023-11-21T10:26:31;34.78;;;12.43;;
39654;SDS011;25336;59.944;11.010;2023-11-21T10:28:59;43.60;;;11.95;;
39654;SDS011;25336;59.944;11.010;2023-11-21T10:31:32;24.45;;;10.70;;
39654;SDS011;25336;59.944;11.010;2023-11-21T10:34:17;20.27;;;10.60;;
39654;SDS011;25336;59.944;11.010;2023-11-21T10:36:44;21.85;;;12.20;;
39654;SDS011;25336;59.944;11.010;2023-11-21T10:39:17;16.42;;;11.38;;
39654;SDS011;25336;59.944;11.010;2023-11-21T10:41:44;28.38;;;13.23;;
39654;SDS011;25336;59.944;11.010;2023-11-21T10:44:13;17.40;;;10.88;;
39654;SDS011;25336;59.944;11.010;2023-11-21T10:46:49;19.08;;;11.18;;
39654;SDS011;25336;59.944;11.010;2023-11-21T10:49:16;26.35;;;13.20;;
39654;SDS011;25336;59.944;11.010;2023-11-21T10:51:43;21.98;;;12.52;;
39654;SDS011;25336;59.944;11.010;2023-11-21T10:54:09;18.45;;;11.68;;
39654;SDS011;25336;59.944;11.010;2023-11-21T10:56:37;21.50;;;10.65;;
39654;SDS011;25336;59.944;11.010;2023-11-21T10:59:08;19.98;;;10.90;;
39654;SDS011;25336;59.944;11.010;2023-11-21T11:01:46;35.63;;;12.90;;
39654;SDS011;25336;59.944;11.010;2023-11-21T11:04:14;32.10;;;13.35;;
39654;SDS011;25336;59.944;11.010;2023-11-21T11:06:43;22.40;;;13.15;;
39654;SDS011;25336;59.944;11.010;2023-11-21T11:09:12;28.33;;;14.15;;
39654;SDS011;25336;59.944;11.010;2023-11-21T11:11:41;20.50;;;13.50;;
39654;SDS011;25336;59.944;11.010;2023-11-21T11:14:10;31.55;;;13.85;;
39654;SDS011;25336;59.944;11.010;2023-11-21T11:16:37;31.45;;;14.90;;
39654;SDS011;25336;59.944;11.010;2023-11-21T11:19:09;38.22;;;13.73;;
39654;SDS011;25336;59.944;11.010;2023-11-21T11:30:14;26.55;;;13.48;;
39654;SDS011;25336;59.944;11.010;2023-11-21T11:35:38;18.80;;;12.80;;
39654;SDS011;25336;59.944;11.010;2023-11-21T11:38:14;21.90;;;12.75;;
39654;SDS011;25336;59.944;11.010;2023-11-21T11:40:40;20.13;;;11.32;;
39654;SDS011;25336;59.944;11.010;2023-11-21T11:43:09;18.20;;;12.15;;
39654;SDS011;25336;59.944;11.010;2023-11-21T11:45:35;19.98;;;12.55;;
39654;SDS011;25336;59.944;11.010;2023-11-21T11:48:06;20.73;;;12.18;;
39654;SDS011;25336;59.944;11.010;2023-11-21T11:50:32;25.48;;;13.68;;
39654;SDS011;25336;59.944;11.010;2023-11-21T11:53:15;20.33;;;13.73;;
39654;SDS011;25336;59.944;11.010;2023-11-21T11:55:43;20.85;;;13.15;;
39654;SDS011;25336;59.944;11.010;2023-11-21T11:58:09;22.77;;;13.30;;
39654;SDS011;25336;59.944;11.010;2023-11-21T12:00:36;19.23;;;11.85;;
39654;SDS011;25336;59.944;11.010;2023-11-21T12:03:03;20.67;;;12.32;;
39654;SDS011;25336;59.944;11.010;2023-11-21T12:05:33;25.10;;;13.75;;
39654;SDS011;25336;59.944;11.010;2023-11-21T12:08:10;24.80;;;13.38;;
39654;SDS011;25336;59.944;11.010;2023-11-21T12:10:38;22.50;;;13.57;;
39654;SDS011;25336;59.944;11.010;2023-11-21T12:13:09;22.95;;;12.73;;
39654;SDS011;25336;59.944;11.010;2023-11-21T12:15:37;23.85;;;14.00;;
39654;SDS011;25336;59.944;11.010;2023-11-21T12:18:04;22.33;;;13.57;;
39654;SDS011;25336;59.944;11.010;2023-11-21T12:20:30;20.02;;;13.07;;
39654;SDS011;25336;59.944;11.010;2023-11-21T12:22:57;31.15;;;18.90;;
39654;SDS011;25336;59.944;11.010;2023-11-21T12:25:27;25.55;;;14.68;;
39654;SDS011;25336;59.944;11.010;2023-11-21T12:27:55;23.83;;;14.90;;
39654;SDS011;25336;59.944;11.010;2023-11-21T12:30:22;23.13;;;14.93;;
39654;SDS011;25336;59.944;11.010;2023-11-21T12:32:50;25.17;;;14.55;;
39654;SDS011;25336;59.944;11.010;2023-11-21T12:35:18;24.02;;;14.65;;
39654;SDS011;25336;59.944;11.010;2023-11-21T12:37:45;25.45;;;13.60;;
39654;SDS011;25336;59.944;11.010;2023-11-21T12:40:12;24.15;;;14.18;;
39654;SDS011;25336;59.944;11.010;2023-11-21T12:42:43;25.55;;;15.07;;
39654;SDS011;25336;59.944;11.010;2023-11-21T12:47:45;23.17;;;13.60;;
39654;SDS011;25336;59.944;11.010;2023-11-21T12:50:11;22.92;;;14.70;;
39654;SDS011;25336;59.944;11.010;2023-11-21T12:52:40;27.92;;;15.75;;
39654;SDS011;25336;59.944;11.010;2023-11-21T12:55:18;26.88;;;15.15;;
39654;SDS011;25336;59.944;11.010;2023-11-21T12:57:52;28.55;;;16.45;;
39654;SDS011;25336;59.944;11.010;2023-11-21T13:00:35;21.88;;;13.50;;
39654;SDS011;25336;59.944;11.010;2023-11-21T13:03:08;23.42;;;14.05;;
39654;SDS011;25336;59.944;11.010;2023-11-21T13:05:39;23.27;;;14.70;;
39654;SDS011;25336;59.944;11.010;2023-11-21T13:08:10;25.75;;;13.80;;
39654;SDS011;25336;59.944;11.010;2023-11-21T13:10:38;24.98;;;14.88;;
39654;SDS011;25336;59.944;11.010;2023-11-21T13:13:08;24.02;;;14.05;;
39654;SDS011;25336;59.944;11.010;2023-11-21T13:15:36;20.75;;;13.35;;
39654;SDS011;25336;59.944;11.010;2023-11-21T13:18:05;18.17;;;11.52;;
39654;SDS011;25336;59.944;11.010;2023-11-21T13:20:32;25.60;;;13.52;;
39654;SDS011;25336;59.944;11.010;2023-11-21T13:22:58;25.50;;;14.88;;
39654;SDS011;25336;59.944;11.010;2023-11-21T13:25:24;19.02;;;11.90;;
39654;SDS011;25336;59.944;11.010;2023-11-21T13:27:55;16.90;;;10.20;;
39654;SDS011;25336;59.944;11.010;2023-11-21T13:30:22;19.60;;;9.82;;
39654;SDS011;25336;59.944;11.010;2023-11-21T13:32:52;16.45;;;9.98;;
39654;SDS011;25336;59.944;11.010;2023-11-21T13:35:30;13.77;;;8.95;;
39654;SDS011;25336;59.944;11.010;2023-11-21T13:38:07;16.60;;;9.63;;
39654;SDS011;25336;59.944;11.010;2023-11-21T13:40:34;15.80;;;9.25;;
39654;SDS011;25336;59.944;11.010;2023-11-21T13:43:13;16.55;;;9.93;;
39654;SDS011;25336;59.944;11.010;2023-11-21T13:45:40;14.82;;;9.52;;
39654;SDS011;25336;59.944;11.010;2023-11-21T13:48:07;16.30;;;9.25;;
39654;SDS011;25336;59.944;11.010;2023-11-21T13:50:41;15.02;;;9.30;;
39654;SDS011;25336;59.944;11.010;2023-11-21T13:53:30;13.15;;;8.75;;
39654;SDS011;25336;59.944;11.010;2023-11-21T13:55:55;13.85;;;7.43;;
39654;SDS011;25336;59.944;11.010;2023-11-21T13:58:25;10.32;;;7.60;;
39654;SDS011;25336;59.944;11.010;2023-11-21T14:01:10;12.80;;;7.93;;
39654;SDS011;25336;59.944;11.010;2023-11-21T14:04:02;11.45;;;6.75;;
39654;SDS011;25336;59.944;11.010;2023-11-21T14:06:42;12.30;;;7.40;;
39654;SDS011;25336;59.944;11.010;2023-11-21T14:09:16;10.10;;;6.75;;
39654;SDS011;25336;59.944;11.010;2023-11-21T14:12:00;12.73;;;7.88;;
39654;SDS011;25336;59.944;11.010;2023-11-21T14:14:31;9.98;;;7.63;;
39654;SDS011;25336;59.944;11.010;2023-11-21T14:16:57;12.98;;;8.60;;
39654;SDS011;25336;59.944;11.010;2023-11-21T14:19:23;9.07;;;6.90;;
39654;SDS011;25336;59.944;11.010;2023-11-21T14:21:55;10.68;;;7.72;;
39654;SDS011;25336;59.944;11.010;2023-11-21T14:24:21;10.10;;;7.75;;
39654;SDS011;25336;59.944;11.010;2023-11-21T14:26:49;10.25;;;6.45;;
39654;SDS011;25336;59.944;11.010;2023-11-21T14:29:17;9.73;;;6.97;;
39654;SDS011;25336;59.944;11.010;2023-11-21T14:31:48;9.68;;;6.88;;